Welcome to Des Moines Iowa Weather. I am an independent private personal weather station on the Northwest Side of Des Moines, Iowa. Just East of Windsor Heights and just West of Glendale . This site is also mobile friendly.

There are no active watches, warnings or advisories


Visit our other weather sites:

Historical Data

Weather Station Setup



Weather Underground History page Text

Daily Summary for December 11, 2017 Units:  English    Metric   Both
« Previous Day
Next Day »
Daily Weekly Monthly Yearly Custom
  High: Low: Average:
Temperature: 44.0 °F 21.8 °F 33.2 °F
Dew Point: 35.0 °F 15.0 °F 25.5 °F
Humidity: 84 % 57 % 74 %
Wind Speed: 17.0 mph 0.0 mph 4 mph
Wind Gust: 23.0 mph - -
Wind:- - SW
Pressure: 30.28 in 29.78 in -
Precipitation: 0.00 in    
Historical Graphs
 
 
Tabular Data for December 11, 2017
Time Temperature Dew Point Pressure Wind Wind Speed Wind Gust Humidity Rainfall Rate (Hourly)
00:07 34.7 °F 27.0 °F 30.03 in Calm   1.0 mph 72 % 0.00 in
00:22 34.6 °F 26.0 °F 30.03 in Calm     72 % 0.00 in
00:37 34.4 °F 26.0 °F 30.02 in Calm     72 % 0.00 in
00:52 34.0 °F 26.0 °F 30.02 in Calm     72 % 0.00 in
01:07 33.4 °F 25.0 °F 30.02 in Calm     72 % 0.00 in
01:22 32.8 °F 25.0 °F 30.01 in Calm     73 % 0.00 in
01:37 32.1 °F 24.0 °F 30.00 in Calm     73 % 0.00 in
01:52 31.4 °F 25.0 °F 29.99 in Calm     76 % 0.00 in
02:07 30.9 °F 25.0 °F 29.97 in Calm     77 % 0.00 in
02:22 30.7 °F 25.0 °F 29.97 in Calm     79 % 0.00 in
02:37 30.8 °F 25.0 °F 29.96 in Calm   1.0 mph 80 % 0.00 in
02:52 31.5 °F 26.0 °F 29.96 in Calm   2.0 mph 80 % 0.00 in
03:07 32.2 °F 26.0 °F 29.94 in North 1.0 mph 3.0 mph 79 % 0.00 in
03:22 32.5 °F 26.0 °F 29.95 in Calm     78 % 0.00 in
03:37 32.5 °F 26.0 °F 29.94 in Calm     77 % 0.00 in
03:52 32.3 °F 26.0 °F 29.92 in Calm   2.0 mph 77 % 0.00 in
04:07 32.3 °F 26.0 °F 29.90 in Calm     77 % 0.00 in
04:23 32.4 °F 26.0 °F 29.90 in Calm   2.0 mph 77 % 0.00 in
04:37 32.3 °F 26.0 °F 29.89 in Calm     78 % 0.00 in
05:08 32.3 °F 26.0 °F 29.85 in Calm   3.0 mph 78 % 0.00 in
05:23 32.5 °F 26.0 °F 29.84 in Calm     78 % 0.00 in
05:53 31.9 °F 25.0 °F 29.84 in Calm   1.0 mph 77 % 0.00 in
06:08 31.6 °F 26.0 °F 29.82 in North 1.0 mph 3.0 mph 79 % 0.00 in
06:38 31.6 °F 26.0 °F 29.80 in Calm   1.0 mph 79 % 0.00 in
06:53 31.5 °F 26.0 °F 29.81 in Calm     79 % 0.00 in
07:23 31.2 °F 25.0 °F 29.79 in Calm     79 % 0.00 in
07:38 31.2 °F 25.0 °F 29.79 in Calm     78 % 0.00 in
07:53 31.2 °F 24.0 °F 29.78 in Calm   2.0 mph 76 % 0.00 in
08:08 31.7 °F 25.0 °F 29.79 in NNE 3.0 mph 3.0 mph 75 % 0.00 in
08:38 37.6 °F 25.0 °F 29.78 in WNW 2.0 mph 10.0 mph 61 % 0.00 in
08:53 39.5 °F 26.0 °F 29.78 in NW 3.0 mph 19.0 mph 58 % 0.00 in
09:08 40.4 °F 26.0 °F 29.79 in WNW 6.0 mph 17.0 mph 57 % 0.00 in
09:38 42.4 °F 29.0 °F 29.80 in NW 3.0 mph 23.0 mph 59 % 0.00 in
09:53 42.4 °F 30.0 °F 29.81 in NNE 9.0 mph 18.0 mph 62 % 0.00 in
10:08 43.1 °F 32.0 °F 29.82 in NW 10.0 mph 22.0 mph 65 % 0.00 in
10:23 43.7 °F 33.0 °F 29.82 in WNW 5.0 mph 22.0 mph 65 % 0.00 in
10:39 44.0 °F 32.0 °F 29.82 in NNW 9.0 mph 21.0 mph 64 % 0.00 in
10:53 43.8 °F 32.0 °F 29.82 in NW 4.0 mph 17.0 mph 64 % 0.00 in
11:08 43.8 °F 32.0 °F 29.83 in NW 8.0 mph 21.0 mph 64 % 0.00 in
11:39 43.3 °F 33.0 °F 29.83 in NW 7.0 mph 19.0 mph 67 % 0.00 in
12:25 43.4 °F 34.0 °F 29.85 in North 5.0 mph 17.0 mph 69 % 0.00 in
12:38 43.2 °F 34.0 °F 29.85 in NNE 5.0 mph 17.0 mph 70 % 0.00 in
12:54 42.9 °F 34.0 °F 29.85 in WNW 9.0 mph 18.0 mph 72 % 0.00 in
13:09 42.7 °F 35.0 °F 29.85 in WNW 9.0 mph 19.0 mph 73 % 0.00 in
13:24 42.6 °F 35.0 °F 29.86 in West 12.0 mph 20.0 mph 73 % 0.00 in
13:39 42.5 °F 34.0 °F 29.87 in NW 11.0 mph 16.0 mph 73 % 0.00 in
14:39 41.0 °F 34.0 °F 29.91 in NW 5.0 mph 23.0 mph 76 % 0.00 in
15:09 40.7 °F 34.0 °F 29.93 in WNW 3.0 mph 14.0 mph 76 % 0.00 in
15:24 40.4 °F 34.0 °F 29.95 in NW 4.0 mph 17.0 mph 77 % 0.00 in
15:39 40.1 °F 33.0 °F 29.96 in NNW 8.0 mph 17.0 mph 77 % 0.00 in
15:54 39.7 °F 33.0 °F 29.97 in NNW 8.0 mph 18.0 mph 76 % 0.00 in
16:54 37.3 °F 31.0 °F 30.02 in WNW 5.0 mph 14.0 mph 79 % 0.00 in
17:24 36.1 °F 31.0 °F 30.05 in North 8.0 mph 16.0 mph 81 % 0.00 in
17:54 34.8 °F 30.0 °F 30.07 in NW 2.0 mph 14.0 mph 84 % 0.00 in
18:24 34.5 °F 29.0 °F 30.09 in North 12.0 mph 15.0 mph 80 % 0.00 in
18:39 34.3 °F 28.0 °F 30.10 in NW 8.0 mph 17.0 mph 79 % 0.00 in
18:54 34.0 °F 28.0 °F 30.11 in WNW 8.0 mph 18.0 mph 78 % 0.00 in
19:24 32.9 °F 26.0 °F 30.14 in NE 10.0 mph 20.0 mph 77 % 0.00 in
19:54 31.3 °F 23.0 °F 30.16 in NW 4.0 mph 18.0 mph 72 % 0.00 in
20:10 30.2 °F 22.0 °F 30.18 in NNE 17.0 mph 21.0 mph 71 % 0.00 in
20:25 29.5 °F 22.0 °F 30.19 in NW 11.0 mph 14.0 mph 72 % 0.00 in
20:40 28.9 °F 21.0 °F 30.20 in North 11.0 mph 20.0 mph 72 % 0.00 in
21:10 27.6 °F 19.0 °F 30.21 in North 4.0 mph 14.0 mph 71 % 0.00 in
21:40 26.7 °F 19.0 °F 30.22 in North 3.0 mph 12.0 mph 72 % 0.00 in
21:55 26.3 °F 18.0 °F 30.23 in North 4.0 mph 12.0 mph 72 % 0.00 in
22:10 25.8 °F 18.0 °F 30.24 in North 4.0 mph 8.0 mph 72 % 0.00 in
22:25 25.5 °F 18.0 °F 30.25 in North 3.0 mph 11.0 mph 73 % 0.00 in
22:40 25.2 °F 18.0 °F 30.25 in NNE 3.0 mph 12.0 mph 74 % 0.00 in
22:55 25.0 °F 18.0 °F 30.26 in NNE 5.0 mph 8.0 mph 74 % 0.00 in
23:00 24.8 °F 17.7 °F 30.26 in NNE 7.0 mph 12.0 mph 74 % 0.00 in
23:05 24.6 °F 17.2 °F 30.26 in NNE 4.0 mph 5.0 mph 73 % 0.00 in
23:10 24.6 °F 17.2 °F 30.26 in NNE 4.0 mph 5.0 mph 73 % 0.00 in
23:15 25.0 °F 17.9 °F 30.26 in North 4.0 mph 13.0 mph 74 % 0.00 in
23:20 25.0 °F 17.9 °F 30.26 in North 4.0 mph 13.0 mph 74 % 0.00 in
23:25 23.2 °F 16.0 °F 30.27 in North 1.0 mph 14.0 mph 74 % 0.00 in
23:30 24.3 °F 16.9 °F 30.26 in North 4.0 mph 13.0 mph 73 % 0.00 in
23:35 24.3 °F 16.9 °F 30.26 in North 4.0 mph 13.0 mph 73 % 0.00 in
23:40 22.5 °F 16.0 °F 30.27 in NNE 4.0 mph 10.0 mph 75 % 0.00 in
23:45 23.4 °F 16.4 °F 30.27 in North 4.0 mph 14.0 mph 74 % 0.00 in
23:50 23.4 °F 16.4 °F 30.27 in North 4.0 mph 14.0 mph 74 % 0.00 in
23:55 21.8 °F 15.0 °F 30.28 in North 6.0 mph 15.0 mph 75 % 0.00 in
Des Moines Weather and Climate
Compliments of Weather Underground - 2.75 mb

Script developed by  Jim McMurry - jmcmurry@mwt.net Adapted for the template by  Wim van der Kuil - Leuven-Template.eu

You find our weather info also at:

Weather Underground

Equipment we use:

Weather-station
Davis VP2 Plus

Weather-program
Davis Weatherlink.Com

Weather-server
iMac (Retina 4K, 21.5-inch, Late 2015)

Provider
Hostmonster.com

Davis VP2 Plus

Davis Weatherlink.Com

iMac (Retina 4K, 21.5-inch, Late 2015)

Hostmonster.com